sensor_id;sensor_type;location;lat;lon;timestamp;pressure;altitude;pressure_sealevel;temperature;humidity
57114;BME280;42994;51.606;9.988;2024-01-11T00:00:46;100597.09;;;-9.76;100.00
57114;BME280;42994;51.606;9.988;2024-01-11T00:03:12;100598.41;;;-9.49;100.00
57114;BME280;42994;51.606;9.988;2024-01-11T00:05:39;100605.09;;;-9.35;100.00
57114;BME280;42994;51.606;9.988;2024-01-11T00:08:08;100617.75;;;-9.18;100.00
57114;BME280;42994;51.606;9.988;2024-01-11T00:10:35;100612.53;;;-9.15;100.00
57114;BME280;42994;51.606;9.988;2024-01-11T00:13:02;100601.19;;;-9.13;100.00
57114;BME280;42994;51.606;9.988;2024-01-11T00:15:29;100596.78;;;-9.07;100.00
57114;BME280;42994;51.606;9.988;2024-01-11T00:17:55;100593.41;;;-9.13;100.00
57114;BME280;42994;51.606;9.988;2024-01-11T00:20:22;100589.91;;;-9.09;100.00
57114;BME280;42994;51.606;9.988;2024-01-11T00:22:49;100589.81;;;-9.05;100.00
57114;BME280;42994;51.606;9.988;2024-01-11T00:25:17;100579.50;;;-9.09;100.00
57114;BME280;42994;51.606;9.988;2024-01-11T00:27:43;100580.31;;;-9.06;100.00
57114;BME280;42994;51.606;9.988;2024-01-11T00:30:10;100574.22;;;-9.05;100.00
57114;BME280;42994;51.606;9.988;2024-01-11T00:32:37;100566.63;;;-9.15;100.00
57114;BME280;42994;51.606;9.988;2024-01-11T00:35:04;100570.84;;;-9.09;100.00
57114;BME280;42994;51.606;9.988;2024-01-11T00:37:31;100565.00;;;-9.22;100.00
57114;BME280;42994;51.606;9.988;2024-01-11T00:39:58;100570.13;;;-9.16;100.00
57114;BME280;42994;51.606;9.988;2024-01-11T00:42:26;100561.38;;;-9.12;100.00
57114;BME280;42994;51.606;9.988;2024-01-11T00:44:52;100556.09;;;-9.07;100.00
57114;BME280;42994;51.606;9.988;2024-01-11T00:47:19;100552.50;;;-9.47;100.00
57114;BME280;42994;51.606;9.988;2024-01-11T00:49:46;100560.09;;;-9.36;100.00
57114;BME280;42994;51.606;9.988;2024-01-11T00:52:12;100552.16;;;-9.28;100.00
57114;BME280;42994;51.606;9.988;2024-01-11T00:54:39;100547.81;;;-9.29;100.00
57114;BME280;42994;51.606;9.988;2024-01-11T00:57:06;100544.31;;;-9.25;100.00
57114;BME280;42994;51.606;9.988;2024-01-11T00:59:34;100550.47;;;-9.31;100.00
57114;BME280;42994;51.606;9.988;2024-01-11T01:02:00;100551.06;;;-9.63;100.00
57114;BME280;42994;51.606;9.988;2024-01-11T01:04:27;100548.44;;;-9.61;100.00
57114;BME280;42994;51.606;9.988;2024-01-11T01:06:53;100552.50;;;-9.48;100.00
57114;BME280;42994;51.606;9.988;2024-01-11T01:09:20;100546.50;;;-9.50;100.00
57114;BME280;42994;51.606;9.988;2024-01-11T01:11:47;100545.56;;;-9.48;100.00
57114;BME280;42994;51.606;9.988;2024-01-11T01:14:13;100535.16;;;-9.46;100.00
57114;BME280;42994;51.606;9.988;2024-01-11T01:16:41;100542.13;;;-9.48;100.00
57114;BME280;42994;51.606;9.988;2024-01-11T01:19:08;100528.22;;;-9.45;100.00
57114;BME280;42994;51.606;9.988;2024-01-11T01:21:34;100537.81;;;-9.49;100.00
57114;BME280;42994;51.606;9.988;2024-01-11T01:24:01;100538.59;;;-9.45;100.00
57114;BME280;42994;51.606;9.988;2024-01-11T01:26:28;100547.66;;;-9.68;100.00
57114;BME280;42994;51.606;9.988;2024-01-11T01:28:55;100558.03;;;-10.22;100.00
57114;BME280;42994;51.606;9.988;2024-01-11T01:31:21;100565.97;;;-10.32;100.00
57114;BME280;42994;51.606;9.988;2024-01-11T01:33:49;100557.56;;;-10.48;100.00
57114;BME280;42994;51.606;9.988;2024-01-11T01:36:16;100563.41;;;-10.33;100.00
57114;BME280;42994;51.606;9.988;2024-01-11T01:38:43;100571.69;;;-10.10;100.00
57114;BME280;42994;51.606;9.988;2024-01-11T01:41:10;100579.88;;;-9.80;100.00
57114;BME280;42994;51.606;9.988;2024-01-11T01:43:37;100587.56;;;-9.75;100.00
57114;BME280;42994;51.606;9.988;2024-01-11T01:46:05;100575.41;;;-9.72;100.00
57114;BME280;42994;51.606;9.988;2024-01-11T01:48:32;100566.75;;;-9.69;100.00
57114;BME280;42994;51.606;9.988;2024-01-11T01:51:00;100558.09;;;-9.71;100.00
57114;BME280;42994;51.606;9.988;2024-01-11T01:53:27;100539.09;;;-9.72;100.00
57114;BME280;42994;51.606;9.988;2024-01-11T01:55:54;100553.00;;;-9.76;100.00
57114;BME280;42994;51.606;9.988;2024-01-11T01:58:22;100537.25;;;-9.67;100.00
57114;BME280;42994;51.606;9.988;2024-01-11T02:00:49;100546.00;;;-10.25;100.00
57114;BME280;42994;51.606;9.988;2024-01-11T02:03:17;100545.66;;;-10.02;100.00
57114;BME280;42994;51.606;9.988;2024-01-11T02:05:43;100536.72;;;-9.86;100.00
57114;BME280;42994;51.606;9.988;2024-01-11T02:08:16;100553.97;;;-9.81;100.00
57114;BME280;42994;51.606;9.988;2024-01-11T02:10:46;100545.28;;;-9.80;100.00
57114;BME280;42994;51.606;9.988;2024-01-11T02:13:13;100542.84;;;-9.91;100.00
57114;BME280;42994;51.606;9.988;2024-01-11T02:15:40;100551.41;;;-9.84;100.00
57114;BME280;42994;51.606;9.988;2024-01-11T02:18:07;100555.59;;;-9.76;100.00
57114;BME280;42994;51.606;9.988;2024-01-11T02:20:33;100567.00;;;-9.86;100.00
57114;BME280;42994;51.606;9.988;2024-01-11T02:23:03;100555.75;;;-9.87;100.00
57114;BME280;42994;51.606;9.988;2024-01-11T02:25:33;100561.81;;;-9.86;100.00
57114;BME280;42994;51.606;9.988;2024-01-11T02:27:59;100558.69;;;-10.08;100.00
57114;BME280;42994;51.606;9.988;2024-01-11T02:30:26;100548.94;;;-10.50;100.00
57114;BME280;42994;51.606;9.988;2024-01-11T02:32:53;100548.34;;;-10.11;100.00
57114;BME280;42994;51.606;9.988;2024-01-11T02:35:19;100542.13;;;-9.99;100.00
57114;BME280;42994;51.606;9.988;2024-01-11T02:37:46;100548.03;;;-9.91;100.00
57114;BME280;42994;51.606;9.988;2024-01-11T02:40:14;100550.56;;;-9.87;100.00
57114;BME280;42994;51.606;9.988;2024-01-11T02:42:42;100559.28;;;-9.91;100.00
57114;BME280;42994;51.606;9.988;2024-01-11T02:45:10;100541.31;;;-10.60;100.00
57114;BME280;42994;51.606;9.988;2024-01-11T02:47:37;100558.00;;;-10.19;100.00
57114;BME280;42994;51.606;9.988;2024-01-11T02:50:04;100557.91;;;-10.15;100.00
57114;BME280;42994;51.606;9.988;2024-01-11T02:52:30;100556.19;;;-10.14;100.00
57114;BME280;42994;51.606;9.988;2024-01-11T02:54:57;100552.09;;;-10.29;100.00
57114;BME280;42994;51.606;9.988;2024-01-11T02:57:24;100559.72;;;-10.18;100.00
57114;BME280;42994;51.606;9.988;2024-01-11T02:59:52;100544.13;;;-10.17;100.00
57114;BME280;42994;51.606;9.988;2024-01-11T03:02:18;100548.34;;;-10.10;100.00
57114;BME280;42994;51.606;9.988;2024-01-11T03:04:45;100553.47;;;-10.07;100.00
57114;BME280;42994;51.606;9.988;2024-01-11T03:07:11;100542.59;;;-10.30;100.00
57114;BME280;42994;51.606;9.988;2024-01-11T03:09:38;100532.69;;;-10.59;100.00
57114;BME280;42994;51.606;9.988;2024-01-11T03:12:05;100537.47;;;-10.33;100.00
57114;BME280;42994;51.606;9.988;2024-01-11T03:14:32;100554.53;;;-10.18;100.00
57114;BME280;42994;51.606;9.988;2024-01-11T03:17:00;100571.69;;;-10.11;100.00
57114;BME280;42994;51.606;9.988;2024-01-11T03:19:27;100566.91;;;-10.36;100.00
57114;BME280;42994;51.606;9.988;2024-01-11T03:21:53;100543.63;;;-11.06;100.00
57114;BME280;42994;51.606;9.988;2024-01-11T03:24:20;100561.28;;;-10.66;100.00
57114;BME280;42994;51.606;9.988;2024-01-11T03:26:47;100571.25;;;-10.38;100.00
57114;BME280;42994;51.606;9.988;2024-01-11T03:29:14;100565.03;;;-10.28;100.00
57114;BME280;42994;51.606;9.988;2024-01-11T03:31:40;100555.41;;;-10.19;100.00
57114;BME280;42994;51.606;9.988;2024-01-11T03:34:11;100544.06;;;-10.12;100.00
57114;BME280;42994;51.606;9.988;2024-01-11T03:36:38;100536.19;;;-10.06;100.00
57114;BME280;42994;51.606;9.988;2024-01-11T03:39:05;100539.66;;;-10.06;100.00
57114;BME280;42994;51.606;9.988;2024-01-11T03:41:31;100545.72;;;-10.08;100.00
57114;BME280;42994;51.606;9.988;2024-01-11T03:43:58;100551.22;;;-10.30;100.00
57114;BME280;42994;51.606;9.988;2024-01-11T03:46:25;100541.31;;;-10.59;100.00
57114;BME280;42994;51.606;9.988;2024-01-11T03:48:51;100537.06;;;-10.66;100.00
57114;BME280;42994;51.606;9.988;2024-01-11T03:51:19;100533.63;;;-10.67;100.00
57114;BME280;42994;51.606;9.988;2024-01-11T03:53:46;100529.16;;;-10.55;100.00
57114;BME280;42994;51.606;9.988;2024-01-11T03:56:12;100528.84;;;-10.34;100.00
57114;BME280;42994;51.606;9.988;2024-01-11T03:58:39;100529.50;;;-10.21;100.00
57114;BME280;42994;51.606;9.988;2024-01-11T04:01:07;100532.09;;;-10.22;100.00
57114;BME280;42994;51.606;9.988;2024-01-11T04:03:35;100538.06;;;-10.14;100.00
57114;BME280;42994;51.606;9.988;2024-01-11T04:06:02;100554.47;;;-10.74;100.00
57114;BME280;42994;51.606;9.988;2024-01-11T04:08:30;100562.97;;;-10.65;100.00
57114;BME280;42994;51.606;9.988;2024-01-11T04:10:57;100555.41;;;-10.80;100.00
57114;BME280;42994;51.606;9.988;2024-01-11T04:13:23;100566.47;;;-10.67;100.00
57114;BME280;42994;51.606;9.988;2024-01-11T04:15:50;100575.69;;;-10.46;100.00
57114;BME280;42994;51.606;9.988;2024-01-11T04:18:17;100558.28;;;-10.35;100.00
57114;BME280;42994;51.606;9.988;2024-01-11T04:20:43;100571.94;;;-10.27;100.00
57114;BME280;42994;51.606;9.988;2024-01-11T04:23:10;100563.28;;;-10.26;100.00
57114;BME280;42994;51.606;9.988;2024-01-11T04:25:38;100580.41;;;-10.15;100.00
57114;BME280;42994;51.606;9.988;2024-01-11T04:28:05;100593.38;;;-10.15;100.00
57114;BME280;42994;51.606;9.988;2024-01-11T04:30:31;100595.91;;;-10.09;100.00
57114;BME280;42994;51.606;9.988;2024-01-11T04:32:58;100602.38;;;-10.38;100.00
57114;BME280;42994;51.606;9.988;2024-01-11T04:35:25;100588.13;;;-10.71;100.00
57114;BME280;42994;51.606;9.988;2024-01-11T04:37:52;100577.94;;;-10.88;100.00
57114;BME280;42994;51.606;9.988;2024-01-11T04:40:18;100602.50;;;-10.49;100.00
57114;BME280;42994;51.606;9.988;2024-01-11T04:42:46;100613.56;;;-10.36;100.00
57114;BME280;42994;51.606;9.988;2024-01-11T04:45:13;100613.38;;;-10.23;100.00
57114;BME280;42994;51.606;9.988;2024-01-11T04:47:40;100623.94;;;-10.36;100.00
57114;BME280;42994;51.606;9.988;2024-01-11T04:50:07;100624.59;;;-10.23;100.00
57114;BME280;42994;51.606;9.988;2024-01-11T04:52:34;100620.44;;;-10.33;100.00
57114;BME280;42994;51.606;9.988;2024-01-11T04:55:00;100629.81;;;-10.26;100.00
57114;BME280;42994;51.606;9.988;2024-01-11T04:57:27;100635.00;;;-10.26;100.00
57114;BME280;42994;51.606;9.988;2024-01-11T04:59:55;100637.97;;;-10.52;100.00
57114;BME280;42994;51.606;9.988;2024-01-11T05:02:22;100619.53;;;-11.00;100.00
57114;BME280;42994;51.606;9.988;2024-01-11T05:04:49;100603.22;;;-11.10;100.00
57114;BME280;42994;51.606;9.988;2024-01-11T05:07:15;100621.72;;;-10.65;100.00
57114;BME280;42994;51.606;9.988;2024-01-11T05:09:42;100631.03;;;-10.49;100.00
57114;BME280;42994;51.606;9.988;2024-01-11T05:12:09;100618.53;;;-10.90;100.00
57114;BME280;42994;51.606;9.988;2024-01-11T05:14:35;100609.59;;;-10.61;100.00
57114;BME280;42994;51.606;9.988;2024-01-11T05:17:04;100598.16;;;-10.45;100.00
57114;BME280;42994;51.606;9.988;2024-01-11T05:19:30;100580.53;;;-10.25;100.00
57114;BME280;42994;51.606;9.988;2024-01-11T05:21:57;100565.47;;;-9.98;100.00
57114;BME280;42994;51.606;9.988;2024-01-11T05:24:24;100547.47;;;-10.09;100.00
57114;BME280;42994;51.606;9.988;2024-01-11T05:26:51;100543.91;;;-10.03;100.00
57114;BME280;42994;51.606;9.988;2024-01-11T05:29:18;100549.25;;;-10.12;100.00
57114;BME280;42994;51.606;9.988;2024-01-11T05:31:44;100531.06;;;-10.70;100.00
57114;BME280;42994;51.606;9.988;2024-01-11T05:34:12;100536.19;;;-10.62;100.00
57114;BME280;42994;51.606;9.988;2024-01-11T05:36:39;100551.47;;;-10.42;100.00
57114;BME280;42994;51.606;9.988;2024-01-11T05:39:06;100545.41;;;-10.42;100.00
57114;BME280;42994;51.606;9.988;2024-01-11T05:41:32;100552.16;;;-10.31;100.00
57114;BME280;42994;51.606;9.988;2024-01-11T05:43:59;100562.38;;;-10.25;100.00
57114;BME280;42994;51.606;9.988;2024-01-11T05:46:26;100596.25;;;-10.34;100.00
57114;BME280;42994;51.606;9.988;2024-01-11T05:48:52;100597.16;;;-10.35;100.00
57114;BME280;42994;51.606;9.988;2024-01-11T05:51:20;100590.50;;;-10.56;100.00
57114;BME280;42994;51.606;9.988;2024-01-11T05:53:47;100594.56;;;-10.35;100.00
57114;BME280;42994;51.606;9.988;2024-01-11T05:56:13;100599.59;;;-10.26;100.00
57114;BME280;42994;51.606;9.988;2024-01-11T05:58:40;100604.63;;;-10.16;100.00
57114;BME280;42994;51.606;9.988;2024-01-11T06:01:07;100615.03;;;-10.19;100.00
57114;BME280;42994;51.606;9.988;2024-01-11T06:03:34;100609.81;;;-10.16;100.00
57114;BME280;42994;51.606;9.988;2024-01-11T06:06:00;100599.47;;;-10.16;100.00
57114;BME280;42994;51.606;9.988;2024-01-11T06:08:30;100608.06;;;-10.14;100.00
57114;BME280;42994;51.606;9.988;2024-01-11T06:10:56;100610.97;;;-10.34;100.00
57114;BME280;42994;51.606;9.988;2024-01-11T06:13:23;100609.09;;;-10.28;100.00
57114;BME280;42994;51.606;9.988;2024-01-11T06:15:50;100604.25;;;-10.51;100.00
57114;BME280;42994;51.606;9.988;2024-01-11T06:18:16;100624.75;;;-10.31;100.00
57114;BME280;42994;51.606;9.988;2024-01-11T06:20:43;100632.25;;;-10.14;100.00
57114;BME280;42994;51.606;9.988;2024-01-11T06:23:10;100649.53;;;-10.13;100.00
57114;BME280;42994;51.606;9.988;2024-01-11T06:25:38;100655.72;;;-10.23;100.00
57114;BME280;42994;51.606;9.988;2024-01-11T06:28:06;100638.16;;;-10.68;100.00
57114;BME280;42994;51.606;9.988;2024-01-11T06:30:35;100630.59;;;-10.86;100.00
57114;BME280;42994;51.606;9.988;2024-01-11T06:33:02;100630.13;;;-10.48;100.00
57114;BME280;42994;51.606;9.988;2024-01-11T06:35:28;100647.13;;;-10.27;100.00
57114;BME280;42994;51.606;9.988;2024-01-11T06:37:56;100640.13;;;-10.20;100.00
57114;BME280;42994;51.606;9.988;2024-01-11T06:40:23;100633.16;;;-10.16;100.00
57114;BME280;42994;51.606;9.988;2024-01-11T06:42:51;100623.75;;;-10.23;100.00
57114;BME280;42994;51.606;9.988;2024-01-11T06:45:18;100613.97;;;-10.68;100.00
57114;BME280;42994;51.606;9.988;2024-01-11T06:47:45;100617.94;;;-10.38;100.00
57114;BME280;42994;51.606;9.988;2024-01-11T06:50:12;100612.75;;;-10.38;100.00
57114;BME280;42994;51.606;9.988;2024-01-11T06:52:39;100598.72;;;-10.28;100.00
57114;BME280;42994;51.606;9.988;2024-01-11T06:55:06;100597.00;;;-10.27;100.00
57114;BME280;42994;51.606;9.988;2024-01-11T06:57:33;100595.94;;;-10.12;100.00
57114;BME280;42994;51.606;9.988;2024-01-11T07:00:01;100615.81;;;-10.13;100.00
57114;BME280;42994;51.606;9.988;2024-01-11T07:02:28;100602.78;;;-10.10;100.00
57114;BME280;42994;51.606;9.988;2024-01-11T07:04:55;100598.53;;;-10.12;100.00
57114;BME280;42994;51.606;9.988;2024-01-11T07:07:22;100594.28;;;-10.16;100.00
57114;BME280;42994;51.606;9.988;2024-01-11T07:09:48;100582.13;;;-10.14;100.00
57114;BME280;42994;51.606;9.988;2024-01-11T07:12:15;100579.53;;;-10.14;100.00
57114;BME280;42994;51.606;9.988;2024-01-11T07:14:42;100571.66;;;-10.08;100.00
57114;BME280;42994;51.606;9.988;2024-01-11T07:17:10;100568.97;;;-10.59;100.00
57114;BME280;42994;51.606;9.988;2024-01-11T07:19:37;100587.53;;;-10.30;100.00
57114;BME280;42994;51.606;9.988;2024-01-11T07:22:03;100594.34;;;-10.24;100.00
57114;BME280;42994;51.606;9.988;2024-01-11T07:24:30;100594.34;;;-10.24;100.00
57114;BME280;42994;51.606;9.988;2024-01-11T07:27:03;100590.75;;;-10.14;100.00
57114;BME280;42994;51.606;9.988;2024-01-11T07:29:29;100588.28;;;-10.21;100.00
57114;BME280;42994;51.606;9.988;2024-01-11T07:31:56;100595.09;;;-10.13;100.00
57114;BME280;42994;51.606;9.988;2024-01-11T07:34:24;100603.56;;;-10.01;100.00
57114;BME280;42994;51.606;9.988;2024-01-11T07:36:51;100616.78;;;-10.18;100.00
57114;BME280;42994;51.606;9.988;2024-01-11T07:39:18;100609.72;;;-10.10;100.00
57114;BME280;42994;51.606;9.988;2024-01-11T07:41:45;100608.81;;;-10.08;100.00
57114;BME280;42994;51.606;9.988;2024-01-11T07:44:12;100619.19;;;-10.08;100.00
57114;BME280;42994;51.606;9.988;2024-01-11T07:46:38;100615.72;;;-10.05;100.00
57114;BME280;42994;51.606;9.988;2024-01-11T07:49:05;100629.44;;;-9.98;100.00
57114;BME280;42994;51.606;9.988;2024-01-11T07:51:34;100634.88;;;-10.17;100.00
57114;BME280;42994;51.606;9.988;2024-01-11T07:54:01;100640.84;;;-10.10;100.00
57114;BME280;42994;51.606;9.988;2024-01-11T07:56:28;100633.53;;;-10.44;100.00
57114;BME280;42994;51.606;9.988;2024-01-11T07:58:55;100626.25;;;-10.19;100.00
57114;BME280;42994;51.606;9.988;2024-01-11T08:01:21;100617.53;;;-10.12;100.00
57114;BME280;42994;51.606;9.988;2024-01-11T08:03:48;100619.16;;;-10.05;100.00
57114;BME280;42994;51.606;9.988;2024-01-11T08:06:17;100602.78;;;-10.10;100.00
57114;BME280;42994;51.606;9.988;2024-01-11T08:08:45;100597.63;;;-10.11;100.00
57114;BME280;42994;51.606;9.988;2024-01-11T08:11:16;100613.13;;;-10.05;100.00
57114;BME280;42994;51.606;9.988;2024-01-11T08:13:43;100634.84;;;-10.12;100.00
57114;BME280;42994;51.606;9.988;2024-01-11T08:16:15;100641.69;;;-10.10;100.00
57114;BME280;42994;51.606;9.988;2024-01-11T08:18:42;100614.19;;;-10.20;100.00
57114;BME280;42994;51.606;9.988;2024-01-11T08:21:09;100611.34;;;-10.03;100.00
57114;BME280;42994;51.606;9.988;2024-01-11T08:23:37;100614.69;;;-9.95;100.00
57114;BME280;42994;51.606;9.988;2024-01-11T08:26:06;100631.03;;;-9.90;100.00
57114;BME280;42994;51.606;9.988;2024-01-11T08:28:33;100638.91;;;-9.94;100.00
57114;BME280;42994;51.606;9.988;2024-01-11T08:31:00;100644.03;;;-9.91;100.00
57114;BME280;42994;51.606;9.988;2024-01-11T08:33:30;100649.16;;;-9.85;100.00
57114;BME280;42994;51.606;9.988;2024-01-11T08:35:56;100660.38;;;-9.86;100.00
57114;BME280;42994;51.606;9.988;2024-01-11T08:38:23;100658.84;;;-9.98;100.00
57114;BME280;42994;51.606;9.988;2024-01-11T08:40:50;100664.16;;;-10.06;100.00
57114;BME280;42994;51.606;9.988;2024-01-11T08:43:18;100667.59;;;-10.05;100.00
57114;BME280;42994;51.606;9.988;2024-01-11T08:45:45;100668.50;;;-10.09;100.00
57114;BME280;42994;51.606;9.988;2024-01-11T08:48:12;100669.94;;;-9.90;100.00
57114;BME280;42994;51.606;9.988;2024-01-11T08:50:39;100676.84;;;-9.86;100.00
57114;BME280;42994;51.606;9.988;2024-01-11T08:53:05;100677.72;;;-9.88;100.00
57114;BME280;42994;51.606;9.988;2024-01-11T08:55:32;100670.16;;;-10.02;100.00
57114;BME280;42994;51.606;9.988;2024-01-11T08:57:59;100680.41;;;-9.93;100.00
57114;BME280;42994;51.606;9.988;2024-01-11T09:00:27;100673.56;;;-10.00;100.00
57114;BME280;42994;51.606;9.988;2024-01-11T09:02:54;100666.53;;;-9.92;100.00
57114;BME280;42994;51.606;9.988;2024-01-11T09:05:20;100672.41;;;-9.80;100.00
57114;BME280;42994;51.606;9.988;2024-01-11T09:07:47;100676.50;;;-9.64;100.00
57114;BME280;42994;51.606;9.988;2024-01-11T09:10:14;100676.28;;;-9.49;100.00
57114;BME280;42994;51.606;9.988;2024-01-11T09:12:41;100672.69;;;-9.40;100.00
57114;BME280;42994;51.606;9.988;2024-01-11T09:15:08;100666.56;;;-9.36;100.00
57114;BME280;42994;51.606;9.988;2024-01-11T09:17:36;100665.59;;;-9.30;100.00
57114;BME280;42994;51.606;9.988;2024-01-11T09:20:04;100661.19;;;-9.26;100.00
57114;BME280;42994;51.606;9.988;2024-01-11T09:22:31;100662.00;;;-9.23;100.00
57114;BME280;42994;51.606;9.988;2024-01-11T09:24:58;100662.81;;;-9.19;100.00
57114;BME280;42994;51.606;9.988;2024-01-11T09:27:24;100657.50;;;-9.13;100.00
57114;BME280;42994;51.606;9.988;2024-01-11T09:29:51;100651.47;;;-9.14;100.00
57114;BME280;42994;51.606;9.988;2024-01-11T09:32:17;100654.03;;;-9.12;100.00
57114;BME280;42994;51.606;9.988;2024-01-11T09:34:46;100651.16;;;-8.98;100.00
57114;BME280;42994;51.606;9.988;2024-01-11T09:37:13;100650.25;;;-8.94;100.00
57114;BME280;42994;51.606;9.988;2024-01-11T09:39:40;100650.13;;;-8.88;100.00
57114;BME280;42994;51.606;9.988;2024-01-11T09:42:08;100656.97;;;-8.84;100.00
57114;BME280;42994;51.606;9.988;2024-01-11T09:44:36;100660.91;;;-8.63;100.00
57114;BME280;42994;51.606;9.988;2024-01-11T09:47:05;100653.19;;;-8.66;100.00
57114;BME280;42994;51.606;9.988;2024-01-11T09:49:33;100656.53;;;-8.59;100.00
57114;BME280;42994;51.606;9.988;2024-01-11T09:52:02;100657.97;;;-8.44;100.00
57114;BME280;42994;51.606;9.988;2024-01-11T09:54:28;100676.34;;;-8.54;100.00
57114;BME280;42994;51.606;9.988;2024-01-11T09:56:57;100699.03;;;-8.20;100.00
57114;BME280;42994;51.606;9.988;2024-01-11T09:59:25;100709.28;;;-8.12;100.00
57114;BME280;42994;51.606;9.988;2024-01-11T10:01:52;100711.00;;;-8.11;100.00
57114;BME280;42994;51.606;9.988;2024-01-11T10:04:19;100708.72;;;-7.86;100.00
57114;BME280;42994;51.606;9.988;2024-01-11T10:06:46;100699.50;;;-8.01;100.00
57114;BME280;42994;51.606;9.988;2024-01-11T10:09:15;100702.63;;;-7.85;100.00
57114;BME280;42994;51.606;9.988;2024-01-11T10:11:41;100694.03;;;-7.49;100.00
57114;BME280;42994;51.606;9.988;2024-01-11T10:14:11;100675.41;;;-7.70;100.00
57114;BME280;42994;51.606;9.988;2024-01-11T10:16:38;100684.09;;;-7.71;100.00
57114;BME280;42994;51.606;9.988;2024-01-11T10:19:05;100688.59;;;-7.40;100.00
57114;BME280;42994;51.606;9.988;2024-01-11T10:21:31;100687.91;;;-7.48;100.00
57114;BME280;42994;51.606;9.988;2024-01-11T10:23:58;100682.00;;;-7.55;100.00
57114;BME280;42994;51.606;9.988;2024-01-11T10:26:28;100684.47;;;-7.13;100.00
57114;BME280;42994;51.606;9.988;2024-01-11T10:28:59;100679.09;;;-7.07;100.00
57114;BME280;42994;51.606;9.988;2024-01-11T10:31:28;100672.88;;;-6.68;100.00
57114;BME280;42994;51.606;9.988;2024-01-11T10:33:55;100670.22;;;-6.67;100.00
57114;BME280;42994;51.606;9.988;2024-01-11T10:36:21;100667.03;;;-6.15;100.00
57114;BME280;42994;51.606;9.988;2024-01-11T10:38:49;100663.38;;;-6.10;100.00
57114;BME280;42994;51.606;9.988;2024-01-11T10:41:18;100670.09;;;-6.31;100.00
57114;BME280;42994;51.606;9.988;2024-01-11T10:43:48;100676.59;;;-6.14;100.00
57114;BME280;42994;51.606;9.988;2024-01-11T10:46:15;100679.78;;;-5.76;100.00
57114;BME280;42994;51.606;9.988;2024-01-11T10:48:50;100661.56;;;-5.78;100.00
57114;BME280;42994;51.606;9.988;2024-01-11T10:51:21;100659.66;;;-5.73;100.00
57114;BME280;42994;51.606;9.988;2024-01-11T10:53:49;100639.75;;;-5.77;100.00
57114;BME280;42994;51.606;9.988;2024-01-11T10:56:19;100633.88;;;-5.57;100.00
57114;BME280;42994;51.606;9.988;2024-01-11T10:58:49;100634.34;;;-5.44;100.00
57114;BME280;42994;51.606;9.988;2024-01-11T11:01:16;100627.41;;;-5.45;100.00
57114;BME280;42994;51.606;9.988;2024-01-11T11:03:44;100617.91;;;-5.21;100.00
57114;BME280;42994;51.606;9.988;2024-01-11T11:06:12;100598.84;;;-5.25;100.00
57114;BME280;42994;51.606;9.988;2024-01-11T11:08:40;100587.75;;;-5.06;100.00
57114;BME280;42994;51.606;9.988;2024-01-11T11:11:07;100580.47;;;-4.96;100.00
57114;BME280;42994;51.606;9.988;2024-01-11T11:13:34;100573.66;;;-5.02;100.00
57114;BME280;42994;51.606;9.988;2024-01-11T11:16:03;100558.50;;;-4.92;100.00
57114;BME280;42994;51.606;9.988;2024-01-11T11:18:30;100555.16;;;-4.96;100.00
57114;BME280;42994;51.606;9.988;2024-01-11T11:21:00;100542.69;;;-4.89;100.00
57114;BME280;42994;51.606;9.988;2024-01-11T11:23:27;100538.78;;;-5.01;100.00
57114;BME280;42994;51.606;9.988;2024-01-11T11:25:55;100554.00;;;-5.12;100.00
57114;BME280;42994;51.606;9.988;2024-01-11T11:28:22;100552.66;;;-4.75;100.00
57114;BME280;42994;51.606;9.988;2024-01-11T11:30:50;100557.22;;;-4.57;100.00
57114;BME280;42994;51.606;9.988;2024-01-11T11:33:21;100565.09;;;-4.35;100.00
57114;BME280;42994;51.606;9.988;2024-01-11T11:35:52;100568.59;;;-4.34;100.00
57114;BME280;42994;51.606;9.988;2024-01-11T11:38:20;100567.25;;;-4.22;100.00
57114;BME280;42994;51.606;9.988;2024-01-11T11:40:47;100575.16;;;-4.24;100.00
57114;BME280;42994;51.606;9.988;2024-01-11T11:43:15;100581.22;;;-4.46;100.00
57114;BME280;42994;51.606;9.988;2024-01-11T11:45:43;100570.38;;;-4.36;100.00
57114;BME280;42994;51.606;9.988;2024-01-11T11:48:48;100572.16;;;-4.37;100.00
57114;BME280;42994;51.606;9.988;2024-01-11T11:51:17;100582.44;;;-4.09;100.00
57114;BME280;42994;51.606;9.988;2024-01-11T11:53:46;100583.34;;;-4.10;100.00
57114;BME280;42994;51.606;9.988;2024-01-11T11:56:13;100576.94;;;-4.48;100.00
57114;BME280;42994;51.606;9.988;2024-01-11T11:58:42;100583.44;;;-4.13;100.00
57114;BME280;42994;51.606;9.988;2024-01-11T12:01:09;100581.28;;;-4.47;100.00
57114;BME280;42994;51.606;9.988;2024-01-11T12:03:36;100579.88;;;-4.10;100.00
57114;BME280;42994;51.606;9.988;2024-01-11T12:06:06;100566.25;;;-4.42;100.00
57114;BME280;42994;51.606;9.988;2024-01-11T12:08:34;100572.47;;;-4.45;100.00
57114;BME280;42994;51.606;9.988;2024-01-11T12:11:01;100564.56;;;-4.43;100.00
57114;BME280;42994;51.606;9.988;2024-01-11T12:13:28;100564.19;;;-4.34;100.00
57114;BME280;42994;51.606;9.988;2024-01-11T12:15:56;100560.25;;;-4.22;100.00
57114;BME280;42994;51.606;9.988;2024-01-11T12:18:23;100555.69;;;-4.17;100.00
57114;BME280;42994;51.606;9.988;2024-01-11T12:20:51;100549.03;;;-4.03;100.00
57114;BME280;42994;51.606;9.988;2024-01-11T12:23:19;100550.34;;;-4.14;100.00
57114;BME280;42994;51.606;9.988;2024-01-11T12:25:47;100541.13;;;-4.02;100.00
57114;BME280;42994;51.606;9.988;2024-01-11T12:28:14;100529.50;;;-3.95;100.00
57114;BME280;42994;51.606;9.988;2024-01-11T12:30:40;100523.59;;;-3.78;100.00
57114;BME280;42994;51.606;9.988;2024-01-11T12:33:07;100518.34;;;-3.78;100.00
57114;BME280;42994;51.606;9.988;2024-01-11T12:35:34;100505.09;;;-3.75;100.00